Time,TemperatureF,DewpointF,PressureIn,WindDirection,WindDirectionDegrees,WindSpeedMPH,WindSpeedGustMPH,Humidity,HourlyPrecipIn,Conditions,Clouds,dailyrainin,SoftwareType,DateUTC
2013-05-12 00:01:00,67.4,66.0,30.00,WNW,294,0.0,-999.0,94,-99.99,,,0.00,weatherlink.com 1.10,2013-05-12 04:01:00,
2013-05-12 00:16:00,67.2,66.0,30.00,WNW,294,0.0,-999.0,95,-99.99,,,0.00,weatherlink.com 1.10,2013-05-12 04:16:00,
2013-05-12 00:35:00,67.0,66.0,30.00,WNW,294,0.0,-999.0,95,-99.99,,,0.00,weatherlink.com 1.10,2013-05-12 04:35:00,
2013-05-12 00:46:00,66.9,66.0,30.00,WNW,294,0.0,-999.0,95,-99.99,,,0.00,weatherlink.com 1.10,2013-05-12 04:46:00,
2013-05-12 01:01:00,66.9,66.0,30.00,WNW,293,0.0,-999.0,96,-99.99,,,0.00,weatherlink.com 1.10,2013-05-12 05:01:00,
2013-05-12 01:16:00,66.7,66.0,30.00,WNW,293,0.0,-999.0,96,-99.99,,,0.00,weatherlink.com 1.10,2013-05-12 05:16:00,
2013-05-12 01:35:00,66.7,66.0,30.00,WNW,293,0.0,-999.0,96,-99.99,,,0.00,weatherlink.com 1.10,2013-05-12 05:35:00,
2013-05-12 01:47:00,66.7,66.0,29.99,WNW,294,0.0,-999.0,96,-99.99,,,0.00,weatherlink.com 1.10,2013-05-12 05:47:00,
2013-05-12 02:02:00,66.9,66.0,29.98,WNW,293,0.0,-999.0,97,-99.99,,,0.00,weatherlink.com 1.10,2013-05-12 06:02:00,
2013-05-12 02:17:00,67.1,66.0,29.98,WNW,293,0.0,-999.0,97,-99.99,,,0.00,weatherlink.com 1.10,2013-05-12 06:17:00,
2013-05-12 02:35:00,67.4,67.0,29.98,WNW,288,0.0,-999.0,97,-99.99,,,0.00,weatherlink.com 1.10,2013-05-12 06:35:00,
2013-05-12 02:46:00,67.3,67.0,29.97,WNW,290,0.0,-999.0,97,-99.99,,,0.00,weatherlink.com 1.10,2013-05-12 06:46:00,
2013-05-12 03:02:00,67.3,67.0,29.95,WNW,288,0.0,-999.0,97,-99.99,,,0.00,weatherlink.com 1.10,2013-05-12 07:02:00,
2013-05-12 03:17:00,67.3,67.0,29.96,WNW,282,0.0,-999.0,97,-99.99,,,0.00,weatherlink.com 1.10,2013-05-12 07:17:00,
2013-05-12 03:35:00,67.3,67.0,29.96,West,276,0.0,-999.0,97,-99.99,,,0.00,weatherlink.com 1.10,2013-05-12 07:35:00,
2013-05-12 03:46:00,67.4,67.0,29.96,WSW,258,0.0,-999.0,97,-99.99,,,0.00,weatherlink.com 1.10,2013-05-12 07:46:00,
2013-05-12 04:02:00,67.3,67.0,29.95,North,355,0.0,-999.0,97,-99.99,,,0.00,weatherlink.com 1.10,2013-05-12 08:02:00,
2013-05-12 04:17:00,67.2,66.0,29.93,NNW,340,0.0,-999.0,97,-99.99,,,0.00,weatherlink.com 1.10,2013-05-12 08:17:00,
2013-05-12 04:36:00,67.2,66.0,29.96,West,275,0.0,-999.0,97,-99.99,,,0.00,weatherlink.com 1.10,2013-05-12 08:36:00,
2013-05-12 04:47:00,67.2,66.0,29.95,West,273,0.0,-999.0,97,-99.99,,,0.00,weatherlink.com 1.10,2013-05-12 08:47:00,
2013-05-12 05:00:00,67.3,66.4,29.94,SE,145,0.0,0.0,97,0.00,,,0.00,Wunderground v.1.15,2013-05-12 09:00:00,
2013-05-12 05:05:00,67.3,66.4,29.95,SSW,195,0.0,0.0,97,0.00,,,0.00,Wunderground v.1.15,2013-05-12 09:05:00,
2013-05-12 05:10:00,67.3,66.4,29.95,SSW,195,0.0,0.0,97,0.00,,,0.00,Wunderground v.1.15,2013-05-12 09:10:00,
2013-05-12 05:15:00,67.3,66.4,29.95,SSW,195,0.0,0.0,97,0.00,,,0.00,Wunderground v.1.15,2013-05-12 09:15:00,
2013-05-12 05:25:00,67.3,66.4,29.94,SSW,195,0.0,0.0,97,0.00,,,0.00,Wunderground v.1.15,2013-05-12 09:25:00,
2013-05-12 05:30:00,67.3,66.4,29.94,SSW,195,0.0,0.0,97,0.00,,,0.00,Wunderground v.1.15,2013-05-12 09:30:00,
2013-05-12 05:35:00,67.3,66.4,29.94,SSW,195,0.0,0.0,97,0.00,,,0.00,Wunderground v.1.15,2013-05-12 09:35:00,
2013-05-12 05:47:00,67.2,66.0,29.94,SSW,195,0.0,-999.0,97,-99.99,,,0.00,weatherlink.com 1.10,2013-05-12 09:47:00,
2013-05-12 06:02:00,67.0,66.0,29.95,ENE,76,0.0,-999.0,97,-99.99,,,0.00,weatherlink.com 1.10,2013-05-12 10:02:00,
2013-05-12 06:17:00,66.8,66.0,29.95,ENE,76,0.0,-999.0,97,-99.99,,,0.00,weatherlink.com 1.10,2013-05-12 10:17:00,
2013-05-12 06:36:00,66.7,66.0,29.95,WSW,250,0.0,-999.0,97,-99.99,,,0.00,weatherlink.com 1.10,2013-05-12 10:36:00,
2013-05-12 06:47:00,66.6,66.0,29.96,WSW,250,0.0,-999.0,97,-99.99,,,0.00,weatherlink.com 1.10,2013-05-12 10:47:00,
2013-05-12 07:02:00,66.7,66.0,29.96,WSW,250,0.0,-999.0,98,-99.99,,,0.00,weatherlink.com 1.10,2013-05-12 11:02:00,
2013-05-12 07:17:00,66.7,66.0,29.98,WSW,250,0.0,-999.0,98,-99.99,,,0.00,weatherlink.com 1.10,2013-05-12 11:17:00,
2013-05-12 07:36:00,67.0,67.0,29.98,WSW,250,0.0,-999.0,98,-99.99,,,0.00,weatherlink.com 1.10,2013-05-12 11:36:00,
2013-05-12 07:47:00,67.5,67.0,29.98,NNW,340,1.0,-999.0,98,-99.99,,,0.00,weatherlink.com 1.10,2013-05-12 11:47:00,
2013-05-12 08:02:00,68.2,68.0,29.98,West,261,1.0,-999.0,98,-99.99,,,0.00,weatherlink.com 1.10,2013-05-12 12:02:00,
2013-05-12 08:17:00,68.9,68.0,29.98,NE,55,0.0,-999.0,97,-99.99,,,0.00,weatherlink.com 1.10,2013-05-12 12:17:00,
2013-05-12 08:36:00,70.0,69.0,29.98,WSW,248,0.0,-999.0,95,-99.99,,,0.00,weatherlink.com 1.10,2013-05-12 12:36:00,
2013-05-12 08:47:00,71.0,68.0,29.99,West,273,0.0,-999.0,91,-99.99,,,0.00,weatherlink.com 1.10,2013-05-12 12:47:00,
2013-05-12 09:02:00,72.2,69.0,29.99,WSW,245,1.0,-999.0,88,-99.99,,,0.00,weatherlink.com 1.10,2013-05-12 13:02:00,
2013-05-12 09:17:00,73.8,69.0,30.00,West,269,0.0,-999.0,86,-99.99,,,0.00,weatherlink.com 1.10,2013-05-12 13:17:00,
2013-05-12 09:36:00,74.1,69.0,30.00,WNW,300,1.0,-999.0,84,-99.99,,,0.00,weatherlink.com 1.10,2013-05-12 13:36:00,
2013-05-12 09:47:00,75.0,69.0,30.00,WNW,284,0.0,-999.0,82,-99.99,,,0.00,weatherlink.com 1.10,2013-05-12 13:47:00,
2013-05-12 10:02:00,75.8,70.0,30.00,West,280,1.0,-999.0,82,-99.99,,,0.00,weatherlink.com 1.10,2013-05-12 14:02:00,
2013-05-12 10:17:00,76.6,69.0,30.00,West,271,1.0,-999.0,78,-99.99,,,0.00,weatherlink.com 1.10,2013-05-12 14:17:00,
2013-05-12 10:30:00,76.3,68.9,29.99,West,273,0.0,1.0,78,0.00,,,0.00,Wunderground v.1.15,2013-05-12 14:30:00,
2013-05-12 10:35:00,76.3,68.9,29.99,NW,310,0.0,2.0,78,0.00,,,0.00,Wunderground v.1.15,2013-05-12 14:35:00,
2013-05-12 10:40:00,76.6,69.6,30.00,SSW,208,0.0,1.0,79,0.00,,,0.00,Wunderground v.1.15,2013-05-12 14:40:00,
2013-05-12 10:46:00,76.8,69.4,29.99,WNW,288,0.0,2.0,78,0.00,,,0.00,Wunderground v.1.15,2013-05-12 14:46:00,
2013-05-12 10:51:00,76.8,68.7,29.99,NNW,333,0.0,1.0,76,0.00,,,0.00,Wunderground v.1.15,2013-05-12 14:51:00,
2013-05-12 10:56:00,76.7,68.9,29.99,NW,319,1.0,2.0,77,0.00,,,0.00,Wunderground v.1.15,2013-05-12 14:56:00,
2013-05-12 11:02:00,77.5,69.0,30.00,West,268,1.0,-999.0,76,-99.99,,,0.00,weatherlink.com 1.10,2013-05-12 15:02:00,
2013-05-12 11:17:00,78.3,70.0,29.99,West,269,0.0,-999.0,76,-99.99,,,0.00,weatherlink.com 1.10,2013-05-12 15:17:00,
2013-05-12 11:36:00,78.8,69.0,29.99,SW,220,1.0,-999.0,72,-99.99,,,0.00,weatherlink.com 1.10,2013-05-12 15:36:00,
2013-05-12 11:47:00,80.2,70.0,29.99,WNW,303,0.0,-999.0,71,-99.99,,,0.00,weatherlink.com 1.10,2013-05-12 15:47:00,
2013-05-12 12:02:00,79.6,69.0,29.99,West,275,1.0,-999.0,70,-99.99,,,0.00,weatherlink.com 1.10,2013-05-12 16:02:00,
2013-05-12 12:17:00,80.5,71.0,29.99,West,271,1.0,-999.0,72,-99.99,,,0.00,weatherlink.com 1.10,2013-05-12 16:17:00,
2013-05-12 12:36:00,81.5,68.0,30.00,North,355,1.0,-999.0,64,-99.99,,,0.00,weatherlink.com 1.10,2013-05-12 16:36:00,
2013-05-12 12:47:00,80.4,69.0,29.99,West,268,1.0,-999.0,69,-99.99,,,0.00,weatherlink.com 1.10,2013-05-12 16:47:00,
2013-05-12 13:02:00,82.0,71.0,29.98,West,275,1.0,-999.0,70,-99.99,,,0.00,weatherlink.com 1.10,2013-05-12 17:02:00,
2013-05-12 13:17:00,81.0,68.0,29.98,West,260,2.0,-999.0,64,-99.99,,,0.00,weatherlink.com 1.10,2013-05-12 17:17:00,
2013-05-12 13:36:00,81.7,68.0,29.97,West,265,1.0,-999.0,64,-99.99,,,0.00,weatherlink.com 1.10,2013-05-12 17:36:00,
2013-05-12 13:47:00,83.1,71.0,29.96,NW,318,1.0,-999.0,66,-99.99,,,0.00,weatherlink.com 1.10,2013-05-12 17:47:00,
2013-05-12 14:03:00,84.1,68.0,29.96,ENE,70,1.0,-999.0,59,-99.99,,,0.00,weatherlink.com 1.10,2013-05-12 18:03:00,
2013-05-12 14:18:00,84.2,68.0,29.96,WNW,288,1.0,-999.0,58,-99.99,,,0.00,weatherlink.com 1.10,2013-05-12 18:18:00,
2013-05-12 14:37:00,84.2,66.0,29.96,NNW,332,1.0,-999.0,55,-99.99,,,0.00,weatherlink.com 1.10,2013-05-12 18:37:00,
2013-05-12 14:48:00,84.0,67.0,29.95,NW,313,2.0,-999.0,57,-99.99,,,0.00,weatherlink.com 1.10,2013-05-12 18:48:00,
2013-05-12 15:03:00,83.8,67.0,29.95,WNW,296,4.0,-999.0,57,-99.99,,,0.00,weatherlink.com 1.10,2013-05-12 19:03:00,
2013-05-12 15:18:00,84.6,69.0,29.95,SW,226,1.0,-999.0,59,-99.99,,,0.00,weatherlink.com 1.10,2013-05-12 19:18:00,
2013-05-12 15:37:00,84.3,67.0,29.94,West,281,0.0,-999.0,57,-99.99,,,0.00,weatherlink.com 1.10,2013-05-12 19:37:00,
2013-05-12 15:48:00,84.8,67.0,29.93,NW,321,0.0,-999.0,55,-99.99,,,0.00,weatherlink.com 1.10,2013-05-12 19:48:00,
2013-05-12 16:03:00,83.7,66.0,29.93,NW,321,2.0,-999.0,56,-99.99,,,0.00,weatherlink.com 1.10,2013-05-12 20:03:00,
2013-05-12 16:18:00,83.9,66.0,29.93,WNW,292,0.0,-999.0,56,-99.99,,,0.00,weatherlink.com 1.10,2013-05-12 20:18:00,
2013-05-12 16:37:00,84.4,67.0,29.92,SW,220,0.0,-999.0,56,-99.99,,,0.00,weatherlink.com 1.10,2013-05-12 20:37:00,
2013-05-12 16:48:00,84.4,66.0,29.92,NW,314,0.0,-999.0,55,-99.99,,,0.00,weatherlink.com 1.10,2013-05-12 20:48:00,
2013-05-12 17:03:00,83.6,67.0,29.92,WNW,283,0.0,-999.0,57,-99.99,,,0.00,weatherlink.com 1.10,2013-05-12 21:03:00,
2013-05-12 17:18:00,83.2,67.0,29.92,West,271,0.0,-999.0,58,-99.99,,,0.00,weatherlink.com 1.10,2013-05-12 21:18:00,
2013-05-12 17:37:00,82.6,67.0,29.92,WSW,250,0.0,-999.0,60,-99.99,,,0.00,weatherlink.com 1.10,2013-05-12 21:37:00,
2013-05-12 17:48:00,82.2,67.0,29.92,South,170,0.0,-999.0,61,-99.99,,,0.00,weatherlink.com 1.10,2013-05-12 21:48:00,
2013-05-12 18:03:00,81.7,66.0,29.92,WNW,291,0.0,-999.0,60,-99.99,,,0.00,weatherlink.com 1.10,2013-05-12 22:03:00,
2013-05-12 18:18:00,81.3,66.0,29.92,WNW,282,0.0,-999.0,59,-99.99,,,0.00,weatherlink.com 1.10,2013-05-12 22:18:00,
2013-05-12 18:37:00,80.5,67.0,29.93,WSW,253,0.0,-999.0,63,-99.99,,,0.00,weatherlink.com 1.10,2013-05-12 22:37:00,
2013-05-12 18:48:00,79.8,66.0,29.93,WNW,289,0.0,-999.0,63,-99.99,,,0.00,weatherlink.com 1.10,2013-05-12 22:48:00,
2013-05-12 19:03:00,79.0,68.0,29.94,WNW,291,0.0,-999.0,68,-99.99,,,0.00,weatherlink.com 1.10,2013-05-12 23:03:00,
2013-05-12 19:18:00,78.2,66.0,29.94,WNW,291,0.0,-999.0,67,-99.99,,,0.00,weatherlink.com 1.10,2013-05-12 23:18:00,
2013-05-12 19:37:00,77.7,66.0,29.94,WNW,291,0.0,-999.0,68,-99.99,,,0.00,weatherlink.com 1.10,2013-05-12 23:37:00,
2013-05-12 19:48:00,77.0,66.0,29.95,WNW,291,0.0,-999.0,69,-99.99,,,0.00,weatherlink.com 1.10,2013-05-12 23:48:00,
2013-05-12 20:03:00,76.1,66.0,29.95,WNW,291,0.0,-999.0,70,-99.99,,,0.00,weatherlink.com 1.10,2013-05-13 00:03:00,
2013-05-12 20:18:00,75.1,65.0,29.96,WNW,291,0.0,-999.0,71,-99.99,,,0.00,weatherlink.com 1.10,2013-05-13 00:18:00,
2013-05-12 20:37:00,74.3,65.0,29.96,WNW,291,0.0,-999.0,73,-99.99,,,0.00,weatherlink.com 1.10,2013-05-13 00:37:00,
2013-05-12 20:48:00,73.7,65.0,29.96,WNW,291,0.0,-999.0,74,-99.99,,,0.00,weatherlink.com 1.10,2013-05-13 00:48:00,
2013-05-12 21:03:00,73.1,65.0,29.97,WNW,291,0.0,-999.0,76,-99.99,,,0.00,weatherlink.com 1.10,2013-05-13 01:03:00,
2013-05-12 21:18:00,72.6,65.0,29.98,WNW,291,0.0,-999.0,78,-99.99,,,0.00,weatherlink.com 1.10,2013-05-13 01:18:00,
2013-05-12 21:37:00,72.0,66.0,29.99,WNW,291,0.0,-999.0,81,-99.99,,,0.00,weatherlink.com 1.10,2013-05-13 01:37:00,
2013-05-12 21:48:00,71.6,66.0,30.00,WNW,291,0.0,-999.0,82,-99.99,,,0.00,weatherlink.com 1.10,2013-05-13 01:48:00,
2013-05-12 22:03:00,71.4,66.0,30.00,WNW,291,0.0,-999.0,82,-99.99,,,0.00,weatherlink.com 1.10,2013-05-13 02:03:00,
2013-05-12 22:18:00,71.2,65.0,30.00,WNW,291,0.0,-999.0,81,-99.99,,,0.00,weatherlink.com 1.10,2013-05-13 02:18:00,
2013-05-12 22:37:00,70.8,65.0,30.00,WNW,291,0.0,-999.0,81,-99.99,,,0.00,weatherlink.com 1.10,2013-05-13 02:37:00,
2013-05-12 22:48:00,70.3,65.0,30.01,WNW,291,0.0,-999.0,83,-99.99,,,0.00,weatherlink.com 1.10,2013-05-13 02:48:00,
2013-05-12 23:03:00,69.7,65.0,30.01,WNW,290,0.0,-999.0,85,-99.99,,,0.00,weatherlink.com 1.10,2013-05-13 03:03:00,
2013-05-12 23:18:00,69.1,65.0,30.02,WNW,291,0.0,-999.0,86,-99.99,,,0.00,weatherlink.com 1.10,2013-05-13 03:18:00,
2013-05-12 23:37:00,68.5,65.0,30.02,WNW,291,0.0,-999.0,87,-99.99,,,0.00,weatherlink.com 1.10,2013-05-13 03:37:00,
2013-05-12 23:48:00,67.8,64.0,30.02,WNW,291,0.0,-999.0,86,-99.99,,,0.00,weatherlink.com 1.10,2013-05-13 03:48:00,